PWSweather.com
Personal Weather Stations
Station Observations
KPAGREEN17
Chestnut Hill Farm, Greensburg, PA 15601

Chestnut Hill FarmGreensburg, PA 15601

Lat: 40.32, Lon: -79.55

Elevation: 1148

Station Type: OR 968

Latest ConditionsUpdated 3:30:06 PM EDT Saturday, Apr 25, 2015
Currently Today's Max Today's Min Today's Average
Temperature 56.7°F13.7°C 56.7°F13.7°C 33.3°F0.7°C 40.4°F4.7°C
Dew Point 24.7°F-4.1°C 35.1°F1.7°C 12.3°F-10.9°C 22.8°F-5.1°C
Winds 2.3 mph 3.7 kmh 2.3 mph 3.7 kmh - 0.6 mph 1.0 kmh
Wind Gusts 3.5 mph5.6 kmh 5.8 mph9.3 kmh - -
Humidity 29% 82% 29% 52%
Pressure 29.80 in1009.1 mb 30.04 in1017.3 mb 29.80 in1009.1 mb -
Hour Temp Dew Point Humidity Winds Wind Gusts Pressure Precip Precip Rate Daily Precip Total
03:30 PM 56.7°F13.7°C 24.7°F-4.1°C 29% 2.3 mph 3.7 kmh 3.5 mph5.6 kmh 29.80 in1009.1 mb - 0.00 in0.0 mm 0.00 in0.0 mm
03:15 PM 55.8°F13.2°C 24.8°F-4.0°C 30% 1.2 mph NE1.9 kmh NE 2.3 mph3.7 kmh 29.83 in1010.2 mb - 0.00 in0.0 mm 0.00 in0.0 mm
03:00 PM 54.2°F12.3°C 22.6°F-5.2°C 29% Calm Calm 2.3 mph3.7 kmh 29.83 in1010.2 mb - 0.00 in0.0 mm 0.00 in0.0 mm
02:45 PM 54.2°F12.3°C 23.4°F-4.8°C 30% 2.3 mph N3.7 kmh N 2.3 mph3.7 kmh 29.86 in1011.2 mb - 0.00 in0.0 mm 0.00 in0.0 mm
02:30 PM 53.2°F11.8°C 22.5°F-5.3°C 30% 1.2 mph WSW1.9 kmh WSW -- 29.86 in1011.2 mb - 0.00 in0.0 mm 0.00 in0.0 mm
02:15 PM 53.4°F11.9°C 23.5°F-4.7°C 31% 2.3 mph NNE3.7 kmh NNE 3.5 mph5.6 kmh 29.86 in1011.2 mb - 0.00 in0.0 mm 0.00 in0.0 mm
02:00 PM 52.2°F11.2°C 21.6°F-5.8°C 30% 2.3 mph NE3.7 kmh NE 2.3 mph3.7 kmh 29.86 in1011.2 mb - 0.00 in0.0 mm 0.00 in0.0 mm
01:45 PM 52.7°F11.5°C 22.9°F-5.1°C 31% 2.3 mph E3.7 kmh E 5.8 mph9.3 kmh 29.86 in1011.2 mb - 0.00 in0.0 mm 0.00 in0.0 mm
01:30 PM 52.3°F11.3°C 26.8°F-2.9°C 37% 1.2 mph NNE1.9 kmh NNE 2.3 mph3.7 kmh 29.89 in1012.2 mb - 0.00 in0.0 mm 0.00 in0.0 mm
01:15 PM 50.5°F10.3°C 27.1°F-2.7°C 40% 2.3 mph WSW3.7 kmh WSW 5.8 mph9.3 kmh 29.89 in1012.2 mb - 0.00 in0.0 mm 0.00 in0.0 mm
01:00 PM 50.7°F10.4°C 28.4°F-2.0°C 42% 2.3 mph NE3.7 kmh NE 3.5 mph5.6 kmh 29.92 in1013.2 mb - 0.00 in0.0 mm 0.00 in0.0 mm
12:45 PM 48.2°F9.0°C 29.4°F-1.4°C 48% Calm Calm 1.2 mph1.9 kmh 29.92 in1013.2 mb - 0.00 in0.0 mm 0.00 in0.0 mm
12:30 PM 47.9°F8.8°C 30.6°F-0.8°C 51% 2.3 mph N3.7 kmh N 2.3 mph3.7 kmh 29.92 in1013.2 mb - 0.00 in0.0 mm 0.00 in0.0 mm
12:15 PM 47.2°F8.4°C 31.4°F-0.3°C 54% 2.3 mph 3.7 kmh 1.2 mph1.9 kmh 29.95 in1014.2 mb - 0.00 in0.0 mm 0.00 in0.0 mm
12:00 PM 45.7°F7.6°C 33.4°F0.8°C 62% 2.3 mph NE3.7 kmh NE 3.5 mph5.6 kmh 29.95 in1014.2 mb - 0.00 in0.0 mm 0.00 in0.0 mm
11:45 AM 44.0°F6.7°C 34.5°F1.4°C 69% 2.3 mph NE3.7 kmh NE 4.6 mph7.4 kmh 29.95 in1014.2 mb - 0.00 in0.0 mm 0.00 in0.0 mm
11:30 AM 42.8°F6.0°C 35.1°F1.7°C 74% Calm Calm 1.2 mph1.9 kmh 29.95 in1014.2 mb - 0.00 in0.0 mm 0.00 in0.0 mm
11:15 AM 41.2°F5.1°C 34.2°F1.2°C 76% Calm Calm -- 29.95 in1014.2 mb - 0.00 in0.0 mm 0.00 in0.0 mm
11:00 AM 39.9°F4.4°C 33.3°F0.7°C 77% Calm Calm -- 29.95 in1014.2 mb - 0.00 in0.0 mm 0.00 in0.0 mm
10:45 AM 39.0°F3.9°C 32.7°F0.4°C 78% Calm Calm -- 29.98 in1015.2 mb - 0.00 in0.0 mm 0.00 in0.0 mm
10:30 AM 38.7°F3.7°C 32.7°F0.4°C 79% Calm Calm -- 29.98 in1015.2 mb - 0.00 in0.0 mm 0.00 in0.0 mm
10:15 AM 38.3°F3.5°C 32.7°F0.4°C 80% Calm Calm 1.2 mph1.9 kmh 29.98 in1015.2 mb - 0.00 in0.0 mm 0.00 in0.0 mm
10:00 AM 37.9°F3.3°C 32.3°F0.2°C 80% Calm Calm -- 29.98 in1015.2 mb - 0.00 in0.0 mm 0.00 in0.0 mm
09:45 AM 37.6°F3.1°C 32.3°F0.2°C 81% Calm Calm 2.3 mph3.7 kmh 29.98 in1015.2 mb - 0.00 in0.0 mm 0.00 in0.0 mm
09:30 AM 37.0°F2.8°C 31.8°F-0.1°C 81% Calm Calm 2.3 mph3.7 kmh 29.98 in1015.2 mb - 0.00 in0.0 mm 0.00 in0.0 mm
09:15 AM 36.7°F2.6°C 31.7°F-0.2°C 82% 1.2 mph SW1.9 kmh SW -- 29.98 in1015.2 mb - 0.00 in0.0 mm 0.00 in0.0 mm
09:00 AM 36.3°F2.4°C 31.0°F-0.6°C 81% Calm Calm -- 29.98 in1015.2 mb - 0.00 in0.0 mm 0.00 in0.0 mm
08:45 AM 36.1°F2.3°C 30.8°F-0.7°C 81% Calm Calm 3.5 mph5.6 kmh 29.98 in1015.2 mb - 0.00 in0.0 mm 0.00 in0.0 mm
08:30 AM 35.8°F2.1°C 29.6°F-1.3°C 78% 1.2 mph SSW1.9 kmh SSW 3.5 mph5.6 kmh 29.98 in1015.2 mb - 0.00 in0.0 mm 0.00 in0.0 mm
08:15 AM 35.2°F1.8°C 27.4°F-2.6°C 73% Calm Calm 1.2 mph1.9 kmh 30.01 in1016.3 mb - 0.00 in0.0 mm 0.00 in0.0 mm
08:00 AM 35.0°F1.7°C 25.8°F-3.4°C 69% Calm Calm 1.2 mph1.9 kmh 30.01 in1016.3 mb - 0.00 in0.0 mm 0.00 in0.0 mm
07:45 AM 34.9°F1.6°C 23.6°F-4.7°C 63% Calm Calm -- 30.01 in1016.3 mb - 0.00 in0.0 mm 0.00 in0.0 mm
07:30 AM 35.3°F1.8°C 25.8°F-3.4°C 68% Calm Calm -- 30.01 in1016.3 mb - 0.00 in0.0 mm 0.00 in0.0 mm
07:15 AM 35.8°F2.1°C 22.9°F-5.1°C 59% Calm Calm -- 30.04 in1017.3 mb - 0.00 in0.0 mm 0.00 in0.0 mm
07:00 AM 36.0°F2.2°C 22.2°F-5.4°C 57% 2.3 mph NNE3.7 kmh NNE 4.6 mph7.4 kmh 30.04 in1017.3 mb - 0.00 in0.0 mm 0.00 in0.0 mm
06:45 AM 36.0°F2.2°C 20.5°F-6.4°C 53% 1.2 mph W1.9 kmh W -- 30.04 in1017.3 mb - 0.00 in0.0 mm 0.00 in0.0 mm
06:30 AM 36.9°F2.7°C 17.5°F-8.1°C 45% 1.2 mph W1.9 kmh W 2.3 mph3.7 kmh 30.04 in1017.3 mb - 0.00 in0.0 mm 0.00 in0.0 mm
06:15 AM 38.1°F3.4°C 17.0°F-8.3°C 42% Calm Calm 2.3 mph3.7 kmh 30.04 in1017.3 mb - 0.00 in0.0 mm 0.00 in0.0 mm
06:00 AM 38.5°F3.6°C 14.4°F-9.8°C 37% 1.2 mph W1.9 kmh W 2.3 mph3.7 kmh 30.01 in1016.3 mb - 0.00 in0.0 mm 0.00 in0.0 mm
05:45 AM 38.5°F3.6°C 13.8°F-10.1°C 36% Calm Calm -- 30.01 in1016.3 mb - 0.00 in0.0 mm 0.00 in0.0 mm
05:30 AM 38.3°F3.5°C 14.3°F-9.8°C 37% Calm Calm -- 30.01 in1016.3 mb - 0.00 in0.0 mm 0.00 in0.0 mm
05:15 AM 38.1°F3.4°C 15.3°F-9.3°C 39% Calm Calm -- 30.01 in1016.3 mb - 0.00 in0.0 mm 0.00 in0.0 mm
05:00 AM 37.8°F3.2°C 16.7°F-8.5°C 42% Calm Calm -- 30.01 in1016.3 mb - 0.00 in0.0 mm 0.00 in0.0 mm
04:45 AM 37.4°F3.0°C 16.4°F-8.7°C 42% Calm Calm -- 30.01 in1016.3 mb - 0.00 in0.0 mm 0.00 in0.0 mm
04:30 AM 37.4°F3.0°C 16.4°F-8.7°C 42% Calm Calm 1.2 mph1.9 kmh 30.01 in1016.3 mb - 0.00 in0.0 mm 0.00 in0.0 mm
04:15 AM 37.2°F2.9°C 16.8°F-8.4°C 43% Calm Calm -- 30.01 in1016.3 mb - 0.00 in0.0 mm 0.00 in0.0 mm
03:45 AM 37.0°F2.8°C 16.0°F-8.9°C 42% Calm Calm -- 30.01 in1016.3 mb - 0.00 in0.0 mm 0.00 in0.0 mm
03:30 AM 36.7°F2.6°C 16.3°F-8.7°C 43% Calm Calm -- 30.01 in1016.3 mb - 0.00 in0.0 mm 0.00 in0.0 mm
03:15 AM 35.8°F2.1°C 16.5°F-8.6°C 45% Calm Calm -- 30.01 in1016.3 mb - 0.00 in0.0 mm 0.00 in0.0 mm
03:00 AM 34.8°F1.6°C 16.6°F-8.6°C 47% Calm Calm -- 30.04 in1017.3 mb - 0.00 in0.0 mm 0.00 in0.0 mm
02:45 AM 33.8°F1.0°C 15.7°F-9.1°C 47% Calm Calm -- 30.01 in1016.3 mb - 0.00 in0.0 mm 0.00 in0.0 mm
02:30 AM 33.3°F0.7°C 15.2°F-9.3°C 47% Calm Calm -- 30.04 in1017.3 mb - 0.00 in0.0 mm 0.00 in0.0 mm
02:15 AM 33.3°F0.7°C 14.7°F-9.6°C 46% Calm Calm -- 30.04 in1017.3 mb - 0.00 in0.0 mm 0.00 in0.0 mm
02:00 AM 33.4°F0.8°C 14.3°F-9.8°C 45% Calm Calm -- 30.04 in1017.3 mb - 0.00 in0.0 mm 0.00 in0.0 mm
01:45 AM 33.4°F0.8°C 14.3°F-9.8°C 45% Calm Calm -- 30.04 in1017.3 mb - 0.00 in0.0 mm 0.00 in0.0 mm
01:30 AM 34.0°F1.1°C 14.8°F-9.6°C 45% Calm Calm -- 30.04 in1017.3 mb - 0.00 in0.0 mm 0.00 in0.0 mm
01:15 AM 34.2°F1.2°C 14.5°F-9.7°C 44% Calm Calm -- 30.04 in1017.3 mb - 0.00 in0.0 mm 0.00 in0.0 mm
01:00 AM 34.5°F1.4°C 14.8°F-9.6°C 44% Calm Calm -- 30.04 in1017.3 mb - 0.00 in0.0 mm 0.00 in0.0 mm
12:45 AM 35.1°F1.7°C 15.3°F-9.3°C 44% Calm Calm -- 30.04 in1017.3 mb - 0.00 in0.0 mm 0.00 in0.0 mm
12:30 AM 36.0°F2.2°C 13.4°F-10.3°C 39% Calm Calm -- 30.04 in1017.3 mb - 0.00 in0.0 mm 0.00 in0.0 mm
12:15 AM 36.8°F2.7°C 12.3°F-10.9°C 36% Calm Calm -- 30.04 in1017.3 mb - 0.00 in0.0 mm 0.00 in0.0 mm
12:00 AM 38.2°F3.4°C 12.3°F-10.9°C 34% Calm Calm -- 30.04 in1017.3 mb - 0.00 in0.0 mm 0.00 in0.0 mm